sensor_id;sensor_type;location;lat;lon;timestamp;P1;durP1;ratioP1;P2;durP2;ratioP2
3779;SDS011;1905;52.482;9.802;2023-04-12T00:01:07;4.80;;;2.87;;
3779;SDS011;1905;52.482;9.802;2023-04-12T00:03:34;2.70;;;2.50;;
3779;SDS011;1905;52.482;9.802;2023-04-12T00:06:02;7.27;;;2.93;;
3779;SDS011;1905;52.482;9.802;2023-04-12T00:08:32;5.23;;;3.23;;
3779;SDS011;1905;52.482;9.802;2023-04-12T00:11:01;8.40;;;2.73;;
3779;SDS011;1905;52.482;9.802;2023-04-12T00:13:29;3.10;;;2.87;;
3779;SDS011;1905;52.482;9.802;2023-04-12T00:15:59;2.40;;;2.20;;
3779;SDS011;1905;52.482;9.802;2023-04-12T00:18:26;4.90;;;3.60;;
3779;SDS011;1905;52.482;9.802;2023-04-12T00:20:54;2.80;;;2.60;;
3779;SDS011;1905;52.482;9.802;2023-04-12T00:23:21;6.60;;;3.17;;
3779;SDS011;1905;52.482;9.802;2023-04-12T00:25:49;7.07;;;2.53;;
3779;SDS011;1905;52.482;9.802;2023-04-12T00:28:16;3.20;;;2.63;;
3779;SDS011;1905;52.482;9.802;2023-04-12T00:30:45;2.53;;;2.33;;
3779;SDS011;1905;52.482;9.802;2023-04-12T00:33:13;5.17;;;2.83;;
3779;SDS011;1905;52.482;9.802;2023-04-12T00:35:41;4.47;;;2.43;;
3779;SDS011;1905;52.482;9.802;2023-04-12T00:38:09;6.47;;;3.10;;
3779;SDS011;1905;52.482;9.802;2023-04-12T00:40:39;4.70;;;2.97;;
3779;SDS011;1905;52.482;9.802;2023-04-12T00:43:07;7.00;;;2.77;;
3779;SDS011;1905;52.482;9.802;2023-04-12T00:45:35;10.30;;;2.67;;
3779;SDS011;1905;52.482;9.802;2023-04-12T00:48:04;4.73;;;2.67;;
3779;SDS011;1905;52.482;9.802;2023-04-12T00:50:33;4.23;;;3.00;;
3779;SDS011;1905;52.482;9.802;2023-04-12T00:53:01;3.20;;;2.90;;
3779;SDS011;1905;52.482;9.802;2023-04-12T00:55:30;4.90;;;2.90;;
3779;SDS011;1905;52.482;9.802;2023-04-12T00:57:57;3.03;;;2.73;;
3779;SDS011;1905;52.482;9.802;2023-04-12T01:00:25;4.20;;;3.00;;
3779;SDS011;1905;52.482;9.802;2023-04-12T01:02:53;3.03;;;2.73;;
3779;SDS011;1905;52.482;9.802;2023-04-12T01:05:22;4.10;;;3.00;;
3779;SDS011;1905;52.482;9.802;2023-04-12T01:07:57;6.13;;;3.00;;
3779;SDS011;1905;52.482;9.802;2023-04-12T01:10:34;3.80;;;2.90;;
3779;SDS011;1905;52.482;9.802;2023-04-12T01:13:12;3.00;;;2.33;;
3779;SDS011;1905;52.482;9.802;2023-04-12T01:15:53;6.00;;;2.97;;
3779;SDS011;1905;52.482;9.802;2023-04-12T01:18:27;3.73;;;2.70;;
3779;SDS011;1905;52.482;9.802;2023-04-12T01:21:00;6.10;;;2.43;;
3779;SDS011;1905;52.482;9.802;2023-04-12T01:23:40;3.80;;;2.47;;
3779;SDS011;1905;52.482;9.802;2023-04-12T01:26:23;3.10;;;2.77;;
3779;SDS011;1905;52.482;9.802;2023-04-12T01:29:02;4.13;;;2.80;;
3779;SDS011;1905;52.482;9.802;2023-04-12T01:31:35;6.73;;;2.37;;
3779;SDS011;1905;52.482;9.802;2023-04-12T01:34:04;5.73;;;2.80;;
3779;SDS011;1905;52.482;9.802;2023-04-12T01:36:34;2.90;;;2.13;;
3779;SDS011;1905;52.482;9.802;2023-04-12T01:39:04;4.87;;;2.67;;
3779;SDS011;1905;52.482;9.802;2023-04-12T01:41:33;9.03;;;2.57;;
3779;SDS011;1905;52.482;9.802;2023-04-12T01:44:07;6.40;;;2.37;;
3779;SDS011;1905;52.482;9.802;2023-04-12T01:46:34;5.47;;;2.70;;
3779;SDS011;1905;52.482;9.802;2023-04-12T01:49:02;5.83;;;2.70;;
3779;SDS011;1905;52.482;9.802;2023-04-12T01:51:33;5.63;;;2.63;;
3779;SDS011;1905;52.482;9.802;2023-04-12T01:54:08;3.20;;;2.50;;
3779;SDS011;1905;52.482;9.802;2023-04-12T01:56:40;7.07;;;3.10;;
3779;SDS011;1905;52.482;9.802;2023-04-12T01:59:13;5.50;;;2.70;;
3779;SDS011;1905;52.482;9.802;2023-04-12T02:01:41;3.33;;;3.03;;
3779;SDS011;1905;52.482;9.802;2023-04-12T02:04:10;3.90;;;2.47;;
3779;SDS011;1905;52.482;9.802;2023-04-12T02:06:38;4.10;;;2.40;;
3779;SDS011;1905;52.482;9.802;2023-04-12T02:09:08;4.23;;;2.30;;
3779;SDS011;1905;52.482;9.802;2023-04-12T02:11:36;5.03;;;2.40;;
3779;SDS011;1905;52.482;9.802;2023-04-12T02:14:03;4.53;;;2.57;;
3779;SDS011;1905;52.482;9.802;2023-04-12T02:16:33;7.47;;;2.80;;
3779;SDS011;1905;52.482;9.802;2023-04-12T02:19:03;2.50;;;2.30;;
3779;SDS011;1905;52.482;9.802;2023-04-12T02:21:38;5.30;;;2.40;;
3779;SDS011;1905;52.482;9.802;2023-04-12T02:24:06;2.40;;;2.30;;
3779;SDS011;1905;52.482;9.802;2023-04-12T02:26:34;4.50;;;2.33;;
3779;SDS011;1905;52.482;9.802;2023-04-12T02:29:02;2.63;;;2.27;;
3779;SDS011;1905;52.482;9.802;2023-04-12T02:31:30;3.63;;;2.17;;
3779;SDS011;1905;52.482;9.802;2023-04-12T02:33:59;2.23;;;1.67;;
3779;SDS011;1905;52.482;9.802;2023-04-12T02:36:27;2.93;;;2.10;;
3779;SDS011;1905;52.482;9.802;2023-04-12T02:38:55;3.97;;;3.60;;
3779;SDS011;1905;52.482;9.802;2023-04-12T02:41:24;2.60;;;2.03;;
3779;SDS011;1905;52.482;9.802;2023-04-12T02:43:53;3.40;;;2.67;;
3779;SDS011;1905;52.482;9.802;2023-04-12T02:46:22;5.37;;;2.70;;
3779;SDS011;1905;52.482;9.802;2023-04-12T02:48:56;5.47;;;2.23;;
3779;SDS011;1905;52.482;9.802;2023-04-12T02:51:33;6.90;;;2.47;;
3779;SDS011;1905;52.482;9.802;2023-04-12T02:54:02;4.10;;;2.60;;
3779;SDS011;1905;52.482;9.802;2023-04-12T02:56:47;3.30;;;2.83;;
3779;SDS011;1905;52.482;9.802;2023-04-12T02:59:37;3.37;;;3.07;;
3779;SDS011;1905;52.482;9.802;2023-04-12T03:02:16;5.80;;;2.40;;
3779;SDS011;1905;52.482;9.802;2023-04-12T03:04:44;3.40;;;3.00;;
3779;SDS011;1905;52.482;9.802;2023-04-12T03:07:21;3.37;;;2.60;;
3779;SDS011;1905;52.482;9.802;2023-04-12T03:09:51;3.90;;;2.93;;
3779;SDS011;1905;52.482;9.802;2023-04-12T03:12:21;4.73;;;2.53;;
3779;SDS011;1905;52.482;9.802;2023-04-12T03:15:09;9.30;;;2.60;;
3779;SDS011;1905;52.482;9.802;2023-04-12T03:17:37;6.60;;;3.10;;
3779;SDS011;1905;52.482;9.802;2023-04-12T03:20:06;3.43;;;2.57;;
3779;SDS011;1905;52.482;9.802;2023-04-12T03:22:40;10.27;;;3.40;;
3779;SDS011;1905;52.482;9.802;2023-04-12T03:25:09;5.20;;;3.90;;
3779;SDS011;1905;52.482;9.802;2023-04-12T03:27:43;3.60;;;3.30;;
3779;SDS011;1905;52.482;9.802;2023-04-12T03:30:14;3.30;;;2.90;;
3779;SDS011;1905;52.482;9.802;2023-04-12T03:32:42;3.37;;;3.07;;
3779;SDS011;1905;52.482;9.802;2023-04-12T03:35:11;10.90;;;2.70;;
3779;SDS011;1905;52.482;9.802;2023-04-12T03:37:42;6.93;;;3.37;;
3779;SDS011;1905;52.482;9.802;2023-04-12T03:40:10;4.80;;;2.60;;
3779;SDS011;1905;52.482;9.802;2023-04-12T03:42:44;5.43;;;2.93;;
3779;SDS011;1905;52.482;9.802;2023-04-12T03:45:13;3.70;;;3.07;;
3779;SDS011;1905;52.482;9.802;2023-04-12T03:47:46;7.23;;;2.93;;
3779;SDS011;1905;52.482;9.802;2023-04-12T03:50:15;6.57;;;3.77;;
3779;SDS011;1905;52.482;9.802;2023-04-12T03:52:52;5.43;;;3.00;;
3779;SDS011;1905;52.482;9.802;2023-04-12T03:55:22;9.17;;;2.93;;
3779;SDS011;1905;52.482;9.802;2023-04-12T03:57:51;4.23;;;3.53;;
3779;SDS011;1905;52.482;9.802;2023-04-12T04:00:25;5.70;;;3.83;;
3779;SDS011;1905;52.482;9.802;2023-04-12T04:03:02;4.90;;;2.80;;
3779;SDS011;1905;52.482;9.802;2023-04-12T04:05:37;2.97;;;2.70;;
3779;SDS011;1905;52.482;9.802;2023-04-12T04:08:07;3.67;;;2.57;;
3779;SDS011;1905;52.482;9.802;2023-04-12T04:10:46;5.13;;;2.77;;
3779;SDS011;1905;52.482;9.802;2023-04-12T04:13:14;5.23;;;3.20;;
3779;SDS011;1905;52.482;9.802;2023-04-12T04:15:42;4.00;;;2.80;;
3779;SDS011;1905;52.482;9.802;2023-04-12T04:18:10;4.50;;;2.77;;
3779;SDS011;1905;52.482;9.802;2023-04-12T04:20:38;3.80;;;2.27;;
3779;SDS011;1905;52.482;9.802;2023-04-12T04:23:07;4.30;;;2.77;;
3779;SDS011;1905;52.482;9.802;2023-04-12T04:25:39;2.80;;;2.30;;
3779;SDS011;1905;52.482;9.802;2023-04-12T04:28:09;3.90;;;2.57;;
3779;SDS011;1905;52.482;9.802;2023-04-12T04:30:36;4.10;;;3.00;;
3779;SDS011;1905;52.482;9.802;2023-04-12T04:33:11;7.20;;;4.13;;
3779;SDS011;1905;52.482;9.802;2023-04-12T04:35:41;7.33;;;4.17;;
3779;SDS011;1905;52.482;9.802;2023-04-12T04:38:25;8.70;;;3.63;;
3779;SDS011;1905;52.482;9.802;2023-04-12T04:41:03;5.20;;;3.57;;
3779;SDS011;1905;52.482;9.802;2023-04-12T04:43:46;6.63;;;3.07;;
3779;SDS011;1905;52.482;9.802;2023-04-12T04:46:15;10.30;;;4.00;;
3779;SDS011;1905;52.482;9.802;2023-04-12T04:48:46;3.80;;;2.90;;
3779;SDS011;1905;52.482;9.802;2023-04-12T04:51:14;3.63;;;3.30;;
3779;SDS011;1905;52.482;9.802;2023-04-12T04:53:45;4.30;;;2.97;;
3779;SDS011;1905;52.482;9.802;2023-04-12T04:56:14;3.70;;;3.40;;
3779;SDS011;1905;52.482;9.802;2023-04-12T04:58:46;5.03;;;2.70;;
3779;SDS011;1905;52.482;9.802;2023-04-12T05:01:13;3.80;;;2.87;;
3779;SDS011;1905;52.482;9.802;2023-04-12T05:03:44;3.57;;;3.13;;
3779;SDS011;1905;52.482;9.802;2023-04-12T05:06:12;7.53;;;3.60;;
3779;SDS011;1905;52.482;9.802;2023-04-12T05:08:40;5.00;;;3.30;;
3779;SDS011;1905;52.482;9.802;2023-04-12T05:11:08;4.07;;;2.27;;
3779;SDS011;1905;52.482;9.802;2023-04-12T05:13:36;12.73;;;4.10;;
3779;SDS011;1905;52.482;9.802;2023-04-12T05:16:04;6.57;;;3.03;;
3779;SDS011;1905;52.482;9.802;2023-04-12T05:18:33;3.77;;;2.87;;
3779;SDS011;1905;52.482;9.802;2023-04-12T05:21:01;7.17;;;2.80;;
3779;SDS011;1905;52.482;9.802;2023-04-12T05:23:33;3.40;;;2.90;;
3779;SDS011;1905;52.482;9.802;2023-04-12T05:26:02;4.50;;;2.27;;
3779;SDS011;1905;52.482;9.802;2023-04-12T05:28:39;4.53;;;2.80;;
3779;SDS011;1905;52.482;9.802;2023-04-12T05:31:09;10.00;;;3.20;;
3779;SDS011;1905;52.482;9.802;2023-04-12T05:33:37;6.73;;;2.33;;
3779;SDS011;1905;52.482;9.802;2023-04-12T05:36:05;4.80;;;2.43;;
3779;SDS011;1905;52.482;9.802;2023-04-12T05:38:33;3.17;;;2.87;;
3779;SDS011;1905;52.482;9.802;2023-04-12T05:41:05;2.87;;;2.17;;
3779;SDS011;1905;52.482;9.802;2023-04-12T05:43:32;5.43;;;2.40;;
3779;SDS011;1905;52.482;9.802;2023-04-12T05:46:05;6.90;;;2.80;;
3779;SDS011;1905;52.482;9.802;2023-04-12T05:48:35;3.10;;;2.67;;
3779;SDS011;1905;52.482;9.802;2023-04-12T05:51:04;5.30;;;2.90;;
3779;SDS011;1905;52.482;9.802;2023-04-12T05:53:32;2.73;;;2.50;;
3779;SDS011;1905;52.482;9.802;2023-04-12T05:56:04;2.53;;;2.03;;
3779;SDS011;1905;52.482;9.802;2023-04-12T05:58:32;3.33;;;2.10;;
3779;SDS011;1905;52.482;9.802;2023-04-12T06:01:00;6.63;;;2.30;;
3779;SDS011;1905;52.482;9.802;2023-04-12T06:03:29;2.00;;;1.90;;
3779;SDS011;1905;52.482;9.802;2023-04-12T06:06:05;6.10;;;1.80;;
3779;SDS011;1905;52.482;9.802;2023-04-12T06:08:34;3.40;;;2.10;;
3779;SDS011;1905;52.482;9.802;2023-04-12T06:11:03;8.13;;;2.47;;
3779;SDS011;1905;52.482;9.802;2023-04-12T06:13:31;1.90;;;1.80;;
3779;SDS011;1905;52.482;9.802;2023-04-12T06:15:58;4.37;;;2.63;;
3779;SDS011;1905;52.482;9.802;2023-04-12T06:18:26;3.57;;;1.90;;
3779;SDS011;1905;52.482;9.802;2023-04-12T06:20:55;3.67;;;1.97;;
3779;SDS011;1905;52.482;9.802;2023-04-12T06:23:23;2.60;;;1.63;;
3779;SDS011;1905;52.482;9.802;2023-04-12T06:25:50;2.80;;;2.23;;
3779;SDS011;1905;52.482;9.802;2023-04-12T06:28:19;6.67;;;2.23;;
3779;SDS011;1905;52.482;9.802;2023-04-12T06:30:49;4.93;;;3.40;;
3779;SDS011;1905;52.482;9.802;2023-04-12T06:33:17;3.43;;;2.27;;
3779;SDS011;1905;52.482;9.802;2023-04-12T06:35:48;2.50;;;2.10;;
3779;SDS011;1905;52.482;9.802;2023-04-12T06:38:17;2.93;;;2.47;;
3779;SDS011;1905;52.482;9.802;2023-04-12T06:40:45;4.43;;;2.40;;
3779;SDS011;1905;52.482;9.802;2023-04-12T06:43:13;2.47;;;2.27;;
3779;SDS011;1905;52.482;9.802;2023-04-12T06:45:41;2.63;;;2.27;;
3779;SDS011;1905;52.482;9.802;2023-04-12T06:48:09;2.53;;;2.13;;
3779;SDS011;1905;52.482;9.802;2023-04-12T06:50:37;2.40;;;2.20;;
3779;SDS011;1905;52.482;9.802;2023-04-12T06:53:05;3.00;;;2.67;;
3779;SDS011;1905;52.482;9.802;2023-04-12T06:55:34;3.63;;;2.50;;
3779;SDS011;1905;52.482;9.802;2023-04-12T06:58:01;5.27;;;2.33;;
3779;SDS011;1905;52.482;9.802;2023-04-12T07:00:29;3.57;;;2.13;;
3779;SDS011;1905;52.482;9.802;2023-04-12T07:02:57;2.07;;;1.97;;
3779;SDS011;1905;52.482;9.802;2023-04-12T07:05:24;3.13;;;2.10;;
3779;SDS011;1905;52.482;9.802;2023-04-12T07:07:52;4.67;;;2.13;;
3779;SDS011;1905;52.482;9.802;2023-04-12T07:10:19;2.00;;;1.70;;
3779;SDS011;1905;52.482;9.802;2023-04-12T07:12:48;3.10;;;2.27;;
3779;SDS011;1905;52.482;9.802;2023-04-12T07:15:17;7.50;;;2.77;;
3779;SDS011;1905;52.482;9.802;2023-04-12T07:17:44;3.00;;;1.93;;
3779;SDS011;1905;52.482;9.802;2023-04-12T07:20:12;2.97;;;2.30;;
3779;SDS011;1905;52.482;9.802;2023-04-12T07:22:40;3.73;;;2.07;;
3779;SDS011;1905;52.482;9.802;2023-04-12T07:25:07;9.17;;;3.23;;
3779;SDS011;1905;52.482;9.802;2023-04-12T07:27:36;2.30;;;1.97;;
3779;SDS011;1905;52.482;9.802;2023-04-12T07:30:05;4.40;;;2.20;;
3779;SDS011;1905;52.482;9.802;2023-04-12T07:32:33;3.80;;;2.17;;
3779;SDS011;1905;52.482;9.802;2023-04-12T07:35:01;5.73;;;2.40;;
3779;SDS011;1905;52.482;9.802;2023-04-12T07:37:28;3.00;;;1.90;;
3779;SDS011;1905;52.482;9.802;2023-04-12T07:39:56;3.00;;;1.83;;
3779;SDS011;1905;52.482;9.802;2023-04-12T07:42:23;4.93;;;1.50;;
3779;SDS011;1905;52.482;9.802;2023-04-12T07:44:51;2.20;;;1.90;;
3779;SDS011;1905;52.482;9.802;2023-04-12T07:47:20;2.83;;;1.83;;
3779;SDS011;1905;52.482;9.802;2023-04-12T07:49:48;2.63;;;2.27;;
3779;SDS011;1905;52.482;9.802;2023-04-12T07:52:15;8.43;;;2.10;;
3779;SDS011;1905;52.482;9.802;2023-04-12T07:54:43;4.77;;;2.40;;
3779;SDS011;1905;52.482;9.802;2023-04-12T07:57:10;1.40;;;1.30;;
3779;SDS011;1905;52.482;9.802;2023-04-12T07:59:38;3.90;;;1.80;;
3779;SDS011;1905;52.482;9.802;2023-04-12T08:02:05;3.43;;;1.40;;
3779;SDS011;1905;52.482;9.802;2023-04-12T08:04:34;2.30;;;1.60;;
3779;SDS011;1905;52.482;9.802;2023-04-12T08:07:03;4.83;;;1.83;;
3779;SDS011;1905;52.482;9.802;2023-04-12T08:09:30;2.00;;;1.60;;
3779;SDS011;1905;52.482;9.802;2023-04-12T08:11:58;2.80;;;2.43;;
3779;SDS011;1905;52.482;9.802;2023-04-12T08:14:26;2.00;;;1.70;;
3779;SDS011;1905;52.482;9.802;2023-04-12T08:16:54;4.90;;;1.70;;
3779;SDS011;1905;52.482;9.802;2023-04-12T08:19:21;4.37;;;1.87;;
3779;SDS011;1905;52.482;9.802;2023-04-12T08:21:51;5.77;;;2.50;;
3779;SDS011;1905;52.482;9.802;2023-04-12T08:24:19;2.17;;;1.87;;
3779;SDS011;1905;52.482;9.802;2023-04-12T08:26:46;1.53;;;1.43;;
3779;SDS011;1905;52.482;9.802;2023-04-12T08:29:14;4.93;;;1.70;;
3779;SDS011;1905;52.482;9.802;2023-04-12T08:31:41;1.90;;;1.43;;
3779;SDS011;1905;52.482;9.802;2023-04-12T08:34:09;6.30;;;2.13;;
3779;SDS011;1905;52.482;9.802;2023-04-12T08:36:36;1.70;;;1.60;;
3779;SDS011;1905;52.482;9.802;2023-04-12T08:39:06;3.80;;;1.80;;
3779;SDS011;1905;52.482;9.802;2023-04-12T08:41:34;5.23;;;1.70;;
3779;SDS011;1905;52.482;9.802;2023-04-12T08:44:04;1.60;;;1.50;;
3779;SDS011;1905;52.482;9.802;2023-04-12T08:46:34;3.03;;;2.00;;
3779;SDS011;1905;52.482;9.802;2023-04-12T08:49:01;1.73;;;1.63;;
3779;SDS011;1905;52.482;9.802;2023-04-12T08:51:29;2.83;;;1.50;;
3779;SDS011;1905;52.482;9.802;2023-04-12T08:53:59;3.03;;;1.70;;
3779;SDS011;1905;52.482;9.802;2023-04-12T08:56:28;3.13;;;1.63;;
3779;SDS011;1905;52.482;9.802;2023-04-12T08:58:57;4.20;;;1.43;;
3779;SDS011;1905;52.482;9.802;2023-04-12T09:01:26;1.87;;;1.73;;
3779;SDS011;1905;52.482;9.802;2023-04-12T09:03:54;3.00;;;1.50;;
3779;SDS011;1905;52.482;9.802;2023-04-12T09:06:23;1.83;;;1.57;;
3779;SDS011;1905;52.482;9.802;2023-04-12T09:08:51;3.43;;;1.90;;
3779;SDS011;1905;52.482;9.802;2023-04-12T09:11:22;2.90;;;1.80;;
3779;SDS011;1905;52.482;9.802;2023-04-12T09:13:53;3.70;;;1.70;;
3779;SDS011;1905;52.482;9.802;2023-04-12T09:16:35;3.20;;;1.50;;
3779;SDS011;1905;52.482;9.802;2023-04-12T09:19:03;3.93;;;1.60;;
3779;SDS011;1905;52.482;9.802;2023-04-12T09:21:31;4.30;;;1.73;;
3779;SDS011;1905;52.482;9.802;2023-04-12T09:24:01;3.67;;;1.70;;
3779;SDS011;1905;52.482;9.802;2023-04-12T09:26:31;2.90;;;2.20;;
3779;SDS011;1905;52.482;9.802;2023-04-12T09:28:59;1.93;;;1.80;;
3779;SDS011;1905;52.482;9.802;2023-04-12T09:31:27;4.33;;;1.93;;
3779;SDS011;1905;52.482;9.802;2023-04-12T09:33:59;2.33;;;1.63;;
3779;SDS011;1905;52.482;9.802;2023-04-12T09:36:36;4.50;;;3.07;;
3779;SDS011;1905;52.482;9.802;2023-04-12T09:39:04;4.93;;;2.73;;
3779;SDS011;1905;52.482;9.802;2023-04-12T09:41:31;4.53;;;1.70;;
3779;SDS011;1905;52.482;9.802;2023-04-12T09:44:01;5.23;;;1.77;;
3779;SDS011;1905;52.482;9.802;2023-04-12T09:46:28;4.63;;;2.30;;
3779;SDS011;1905;52.482;9.802;2023-04-12T09:48:57;3.20;;;2.20;;
3779;SDS011;1905;52.482;9.802;2023-04-12T09:51:26;2.50;;;2.23;;
3779;SDS011;1905;52.482;9.802;2023-04-12T09:53:57;4.10;;;1.83;;
3779;SDS011;1905;52.482;9.802;2023-04-12T09:56:27;3.60;;;2.07;;
3779;SDS011;1905;52.482;9.802;2023-04-12T09:58:59;6.50;;;2.00;;
3779;SDS011;1905;52.482;9.802;2023-04-12T10:01:31;5.63;;;2.60;;
3779;SDS011;1905;52.482;9.802;2023-04-12T10:04:02;2.47;;;1.80;;
3779;SDS011;1905;52.482;9.802;2023-04-12T10:06:32;4.50;;;2.47;;
3779;SDS011;1905;52.482;9.802;2023-04-12T10:09:02;6.87;;;2.97;;
3779;SDS011;1905;52.482;9.802;2023-04-12T10:11:30;3.33;;;2.37;;
3779;SDS011;1905;52.482;9.802;2023-04-12T10:14:01;7.50;;;2.60;;
3779;SDS011;1905;52.482;9.802;2023-04-12T10:16:29;2.73;;;2.20;;
3779;SDS011;1905;52.482;9.802;2023-04-12T10:18:59;2.30;;;1.73;;
3779;SDS011;1905;52.482;9.802;2023-04-12T10:21:28;2.50;;;2.17;;
3779;SDS011;1905;52.482;9.802;2023-04-12T10:23:56;2.03;;;1.93;;
3779;SDS011;1905;52.482;9.802;2023-04-12T10:26:24;4.70;;;1.90;;
3779;SDS011;1905;52.482;9.802;2023-04-12T10:31:52;4.83;;;3.33;;
3779;SDS011;1905;52.482;9.802;2023-04-12T10:34:27;9.73;;;3.90;;
3779;SDS011;1905;52.482;9.802;2023-04-12T10:36:56;4.83;;;4.23;;
3779;SDS011;1905;52.482;9.802;2023-04-12T10:39:38;2.57;;;2.37;;
3779;SDS011;1905;52.482;9.802;2023-04-12T10:42:25;2.10;;;2.00;;
3779;SDS011;1905;52.482;9.802;2023-04-12T10:45:33;2.90;;;2.00;;
3779;SDS011;1905;52.482;9.802;2023-04-12T10:48:03;2.70;;;2.13;;
3779;SDS011;1905;52.482;9.802;2023-04-12T10:50:32;2.30;;;2.10;;
3779;SDS011;1905;52.482;9.802;2023-04-12T10:53:21;2.50;;;2.07;;
3779;SDS011;1905;52.482;9.802;2023-04-12T10:55:51;2.37;;;2.10;;
3779;SDS011;1905;52.482;9.802;2023-04-12T11:01:32;3.37;;;2.00;;
3779;SDS011;1905;52.482;9.802;2023-04-12T11:04:05;2.00;;;1.90;;
3779;SDS011;1905;52.482;9.802;2023-04-12T11:09:38;6.17;;;2.00;;
3779;SDS011;1905;52.482;9.802;2023-04-12T11:12:10;3.87;;;3.60;;
3779;SDS011;1905;52.482;9.802;2023-04-12T11:14:43;2.30;;;2.10;;
3779;SDS011;1905;52.482;9.802;2023-04-12T11:17:23;3.47;;;2.60;;
3779;SDS011;1905;52.482;9.802;2023-04-12T11:19:58;2.20;;;2.00;;
3779;SDS011;1905;52.482;9.802;2023-04-12T11:22:27;2.50;;;2.10;;
3779;SDS011;1905;52.482;9.802;2023-04-12T11:24:58;2.40;;;2.20;;
3779;SDS011;1905;52.482;9.802;2023-04-12T11:27:27;3.53;;;2.50;;
3779;SDS011;1905;52.482;9.802;2023-04-12T11:29:57;2.80;;;1.90;;
3779;SDS011;1905;52.482;9.802;2023-04-12T11:32:27;2.23;;;2.03;;
3779;SDS011;1905;52.482;9.802;2023-04-12T11:34:57;3.10;;;1.90;;
3779;SDS011;1905;52.482;9.802;2023-04-12T11:37:28;3.83;;;2.10;;
3779;SDS011;1905;52.482;9.802;2023-04-12T11:39:57;3.03;;;2.37;;
3779;SDS011;1905;52.482;9.802;2023-04-12T11:42:26;4.27;;;2.20;;
3779;SDS011;1905;52.482;9.802;2023-04-12T11:44:55;3.00;;;2.00;;
3779;SDS011;1905;52.482;9.802;2023-04-12T11:47:29;5.27;;;2.47;;
3779;SDS011;1905;52.482;9.802;2023-04-12T11:49:57;5.97;;;2.67;;
3779;SDS011;1905;52.482;9.802;2023-04-12T11:52:28;4.20;;;1.80;;
3779;SDS011;1905;52.482;9.802;2023-04-12T11:54:58;2.50;;;2.30;;
3779;SDS011;1905;52.482;9.802;2023-04-12T11:57:27;4.60;;;2.17;;
3779;SDS011;1905;52.482;9.802;2023-04-12T11:59:56;4.97;;;2.17;;
3779;SDS011;1905;52.482;9.802;2023-04-12T12:02:24;6.67;;;2.00;;
3779;SDS011;1905;52.482;9.802;2023-04-12T12:05:01;2.10;;;1.60;;
3779;SDS011;1905;52.482;9.802;2023-04-12T12:07:29;3.90;;;2.07;;
3779;SDS011;1905;52.482;9.802;2023-04-12T12:09:58;3.93;;;2.67;;
3779;SDS011;1905;52.482;9.802;2023-04-12T12:12:27;2.17;;;1.67;;
3779;SDS011;1905;52.482;9.802;2023-04-12T12:14:57;2.23;;;1.90;;
3779;SDS011;1905;52.482;9.802;2023-04-12T12:17:25;2.00;;;1.77;;
3779;SDS011;1905;52.482;9.802;2023-04-12T12:19:55;2.97;;;2.07;;
3779;SDS011;1905;52.482;9.802;2023-04-12T12:22:25;2.27;;;1.63;;
3779;SDS011;1905;52.482;9.802;2023-04-12T12:24:54;2.57;;;2.20;;
3779;SDS011;1905;52.482;9.802;2023-04-12T12:27:23;2.97;;;2.23;;
3779;SDS011;1905;52.482;9.802;2023-04-12T12:30:00;7.93;;;1.90;;
3779;SDS011;1905;52.482;9.802;2023-04-12T12:32:31;3.83;;;1.90;;
3779;SDS011;1905;52.482;9.802;2023-04-12T12:35:00;2.30;;;1.83;;
3779;SDS011;1905;52.482;9.802;2023-04-12T12:37:29;4.03;;;2.70;;
3779;SDS011;1905;52.482;9.802;2023-04-12T12:40:00;2.17;;;1.70;;
3779;SDS011;1905;52.482;9.802;2023-04-12T12:42:32;4.00;;;2.43;;
3779;SDS011;1905;52.482;9.802;2023-04-12T12:45:01;3.27;;;1.47;;
3779;SDS011;1905;52.482;9.802;2023-04-12T12:47:29;5.07;;;1.97;;
3779;SDS011;1905;52.482;9.802;2023-04-12T12:49:57;1.70;;;1.53;;
3779;SDS011;1905;52.482;9.802;2023-04-12T12:52:25;2.43;;;2.00;;
3779;SDS011;1905;52.482;9.802;2023-04-12T12:54:53;2.00;;;1.90;;
3779;SDS011;1905;52.482;9.802;2023-04-12T12:57:21;2.57;;;2.00;;
3779;SDS011;1905;52.482;9.802;2023-04-12T12:59:49;2.80;;;2.13;;
3779;SDS011;1905;52.482;9.802;2023-04-12T13:02:16;2.80;;;1.50;;
3779;SDS011;1905;52.482;9.802;2023-04-12T13:04:45;1.97;;;1.87;;
3779;SDS011;1905;52.482;9.802;2023-04-12T13:07:12;2.13;;;1.93;;
3779;SDS011;1905;52.482;9.802;2023-04-12T13:09:40;1.77;;;1.53;;
3779;SDS011;1905;52.482;9.802;2023-04-12T13:12:09;2.23;;;1.40;;
3779;SDS011;1905;52.482;9.802;2023-04-12T13:14:37;5.03;;;2.00;;
3779;SDS011;1905;52.482;9.802;2023-04-12T13:17:06;3.00;;;1.87;;
3779;SDS011;1905;52.482;9.802;2023-04-12T13:19:34;4.70;;;1.97;;
3779;SDS011;1905;52.482;9.802;2023-04-12T13:22:02;1.70;;;1.60;;
3779;SDS011;1905;52.482;9.802;2023-04-12T13:24:29;1.90;;;1.60;;
3779;SDS011;1905;52.482;9.802;2023-04-12T13:26:57;2.70;;;1.63;;
3779;SDS011;1905;52.482;9.802;2023-04-12T13:29:26;2.70;;;1.57;;
3779;SDS011;1905;52.482;9.802;2023-04-12T13:31:53;4.20;;;1.60;;
3779;SDS011;1905;52.482;9.802;2023-04-12T13:34:21;2.20;;;1.87;;
3779;SDS011;1905;52.482;9.802;2023-04-12T13:36:49;1.90;;;1.77;;
3779;SDS011;1905;52.482;9.802;2023-04-12T13:39:16;3.67;;;2.10;;
3779;SDS011;1905;52.482;9.802;2023-04-12T13:41:44;1.77;;;1.67;;
3779;SDS011;1905;52.482;9.802;2023-04-12T13:44:12;1.87;;;1.70;;
3779;SDS011;1905;52.482;9.802;2023-04-12T13:46:41;1.80;;;1.70;;
3779;SDS011;1905;52.482;9.802;2023-04-12T13:49:08;2.03;;;1.80;;
3779;SDS011;1905;52.482;9.802;2023-04-12T13:51:36;5.63;;;2.27;;
3779;SDS011;1905;52.482;9.802;2023-04-12T13:54:03;2.20;;;2.10;;
3779;SDS011;1905;52.482;9.802;2023-04-12T13:56:31;1.93;;;1.83;;
3779;SDS011;1905;52.482;9.802;2023-04-12T13:58:59;3.57;;;1.97;;
3779;SDS011;1905;52.482;9.802;2023-04-12T14:01:27;2.20;;;1.40;;
3779;SDS011;1905;52.482;9.802;2023-04-12T14:03:56;2.97;;;1.60;;
3779;SDS011;1905;52.482;9.802;2023-04-12T14:06:24;2.07;;;1.83;;
3779;SDS011;1905;52.482;9.802;2023-04-12T14:08:52;1.93;;;1.30;;
3779;SDS011;1905;52.482;9.802;2023-04-12T14:11:21;1.90;;;1.80;;
3779;SDS011;1905;52.482;9.802;2023-04-12T14:13:49;2.40;;;1.43;;
3779;SDS011;1905;52.482;9.802;2023-04-12T14:16:17;2.60;;;2.23;;
3779;SDS011;1905;52.482;9.802;2023-04-12T14:18:45;2.50;;;1.60;;
3779;SDS011;1905;52.482;9.802;2023-04-12T14:21:14;1.93;;;1.83;;
3779;SDS011;1905;52.482;9.802;2023-04-12T14:23:41;2.90;;;1.73;;
3779;SDS011;1905;52.482;9.802;2023-04-12T14:26:12;1.73;;;1.60;;
3779;SDS011;1905;52.482;9.802;2023-04-12T14:28:41;1.70;;;1.60;;
3779;SDS011;1905;52.482;9.802;2023-04-12T14:31:08;2.77;;;1.73;;
3779;SDS011;1905;52.482;9.802;2023-04-12T14:33:39;2.10;;;2.00;;
3779;SDS011;1905;52.482;9.802;2023-04-12T14:36:10;2.67;;;1.70;;
3779;SDS011;1905;52.482;9.802;2023-04-12T14:38:39;2.87;;;1.70;;
3779;SDS011;1905;52.482;9.802;2023-04-12T14:41:07;2.00;;;1.80;;
3779;SDS011;1905;52.482;9.802;2023-04-12T14:43:36;2.17;;;1.97;;
3779;SDS011;1905;52.482;9.802;2023-04-12T14:46:03;3.57;;;1.90;;
3779;SDS011;1905;52.482;9.802;2023-04-12T14:48:31;1.77;;;1.67;;
3779;SDS011;1905;52.482;9.802;2023-04-12T14:50:58;1.80;;;1.70;;
3779;SDS011;1905;52.482;9.802;2023-04-12T14:53:26;1.90;;;1.80;;
3779;SDS011;1905;52.482;9.802;2023-04-12T14:55:55;1.77;;;1.60;;
3779;SDS011;1905;52.482;9.802;2023-04-12T14:58:22;3.13;;;2.10;;
3779;SDS011;1905;52.482;9.802;2023-04-12T15:00:51;2.13;;;1.63;;
3779;SDS011;1905;52.482;9.802;2023-04-12T15:03:19;1.80;;;1.70;;
3779;SDS011;1905;52.482;9.802;2023-04-12T15:05:47;3.67;;;2.00;;
3779;SDS011;1905;52.482;9.802;2023-04-12T15:08:14;2.73;;;1.60;;
3779;SDS011;1905;52.482;9.802;2023-04-12T15:10:42;1.70;;;1.60;;
3779;SDS011;1905;52.482;9.802;2023-04-12T15:13:11;3.33;;;1.50;;
3779;SDS011;1905;52.482;9.802;2023-04-12T15:15:39;2.13;;;1.50;;
3779;SDS011;1905;52.482;9.802;2023-04-12T15:18:07;2.23;;;1.60;;
3779;SDS011;1905;52.482;9.802;2023-04-12T15:20:35;1.47;;;1.37;;
3779;SDS011;1905;52.482;9.802;2023-04-12T15:23:03;2.10;;;1.90;;
3779;SDS011;1905;52.482;9.802;2023-04-12T15:25:31;1.70;;;1.60;;
3779;SDS011;1905;52.482;9.802;2023-04-12T15:27:59;1.80;;;1.70;;
3779;SDS011;1905;52.482;9.802;2023-04-12T15:30:28;1.40;;;1.30;;
3779;SDS011;1905;52.482;9.802;2023-04-12T15:32:57;1.77;;;1.63;;
3779;SDS011;1905;52.482;9.802;2023-04-12T15:35:25;2.00;;;1.50;;
3779;SDS011;1905;52.482;9.802;2023-04-12T15:37:52;2.20;;;1.23;;
3779;SDS011;1905;52.482;9.802;2023-04-12T15:40:21;2.60;;;1.63;;